Time;durP1;ratioP1;P1;durP2;ratioP2;P2;SDS_P1;SDS_P2;PMS_P1;PMS_P2;Temp;Humidity;BMP_temperature;BMP_pressure;BME280_temperature;BME280_humidity;BME280_pressure;Samples;Min_cycle;Max_cycle;Signal;HPM_P1;HPM_P2
2022/10/29 00:00:53;;;;;;;;;;;;;;;16.11;45.59;99977.44;4997637;28;19921;-83
2022/10/29 00:03:19;;;;;;;;;;;;;;;16.09;45.75;99982.84;5027759;28;20351;-83
2022/10/29 00:05:53;;;;;;;;;;;;;;;16.04;45.69;99977.09;5014200;28;19921;-82
2022/10/29 00:08:18;;;;;;;;;;;;;;;16.05;45.83;99984.06;5026772;28;20363;-82
2022/10/29 00:10:43;;;;;;;;;;;;;;;16.03;45.84;99978.06;5014320;28;19921;-82
2022/10/29 00:13:09;;;;;;;;;;;;;;;16.00;46.02;99980.09;5014186;28;19975;-83
2022/10/29 00:15:34;;;;;;;;;;;;;;;16.00;46.03;99980.09;5026089;28;19969;-83
2022/10/29 00:17:59;;;;;;;;;;;;;;;16.00;46.03;99983.59;5010615;28;19922;-84
2022/10/29 00:20:25;;;;;;;;;;;;;;;16.00;46.06;99977.47;5012042;28;19926;-85
2022/10/29 00:22:54;;;;;;;;;;;;;;;15.99;46.08;99975.81;5010702;28;19976;-85
2022/10/29 00:25:19;;;;;;;;;;;;;;;15.97;45.93;99973.28;5011658;28;19917;-84
2022/10/29 00:27:44;;;;;;;;;;;;;;;15.98;46.20;99974.94;5011734;28;19921;-84
2022/10/29 00:30:10;;;;;;;;;;;;;;;15.94;46.24;99970.91;5010439;28;19953;-84
2022/10/29 00:32:35;;;;;;;;;;;;;;;15.93;46.24;99966.59;5026733;28;19956;-85
2022/10/29 00:35:01;;;;;;;;;;;;;;;15.92;46.38;99964.91;5011739;28;19924;-83
2022/10/29 00:37:26;;;;;;;;;;;;;;;15.89;46.50;99971.25;5010381;28;19976;-85
2022/10/29 00:39:51;;;;;;;;;;;;;;;15.86;46.58;99968.00;5011498;28;19928;-84
2022/10/29 00:42:17;;;;;;;;;;;;;;;15.82;46.79;99964.78;5011504;28;19917;-84
2022/10/29 00:44:42;;;;;;;;;;;;;;;15.79;46.87;99957.13;4993643;28;20296;-83
2022/10/29 00:47:25;;;;;;;;;;;;;;;15.79;46.91;99961.56;5010387;28;19921;-84
2022/10/29 00:49:52;;;;;;;;;;;;;;;15.75;47.02;99963.59;5009370;28;19925;-84
2022/10/29 00:52:18;;;;;;;;;;;;;;;15.74;47.13;99957.47;5010196;28;19924;-84
2022/10/29 00:54:43;;;;;;;;;;;;;;;15.75;46.88;99958.31;5009570;28;20389;-83
2022/10/29 00:57:10;;;;;;;;;;;;;;;15.72;47.24;99959.38;5010186;28;19934;-83
2022/10/29 00:59:35;;;;;;;;;;;;;;;15.72;47.45;99962.03;5011565;28;19956;-84
2022/10/29 01:02:00;;;;;;;;;;;;;;;15.71;47.57;99955.06;4993463;28;19968;-84
2022/10/29 01:04:25;;;;;;;;;;;;;;;15.69;47.70;99948.28;5009822;28;19968;-84
2022/10/29 01:06:51;;;;;;;;;;;;;;;15.68;47.74;99954.47;5010036;28;19924;-84
2022/10/29 01:09:16;;;;;;;;;;;;;;;15.67;47.80;99948.38;5010431;28;20295;-84
2022/10/29 01:12:01;;;;;;;;;;;;;;;15.67;47.82;99950.16;5010172;28;19987;-83
2022/10/29 01:14:32;;;;;;;;;;;;;;;15.64;47.86;99948.63;5026831;28;20304;-85
2022/10/29 01:17:03;;;;;;;;;;;;;;;15.64;48.02;99946.00;5008815;28;19917;-83
2022/10/29 01:19:37;;;;;;;;;;;;;;;15.62;48.03;99936.53;5014727;28;20703;-84
2022/10/29 01:22:21;;;;;;;;;;;;;;;15.58;48.29;99937.75;5017322;28;19928;-83
2022/10/29 01:24:56;;;;;;;;;;;;;;;15.57;48.43;99939.53;5016887;28;19975;-82
2022/10/29 01:27:21;;;;;;;;;;;;;;;15.55;48.30;99939.66;5014043;28;19975;-82
2022/10/29 01:30:07;;;;;;;;;;;;;;;15.52;48.48;99928.53;5034448;28;20347;-83
2022/10/29 01:32:38;;;;;;;;;;;;;;;15.48;48.39;99930.56;5016198;28;19921;-82
2022/10/29 01:35:30;;;;;;;;;;;;;;;15.50;48.40;99930.44;5016933;28;19917;-83
2022/10/29 01:38:04;;;;;;;;;;;;;;;15.50;48.19;99925.19;5013512;28;20804;-83
2022/10/29 01:40:32;;;;;;;;;;;;;;;15.52;48.30;99925.91;5034321;28;19921;-83
2022/10/29 01:43:02;;;;;;;;;;;;;;;15.52;48.11;99920.63;5016785;28;19987;-82
2022/10/29 01:45:32;;;;;;;;;;;;;;;15.52;48.16;99925.91;5016573;28;20467;-83
2022/10/29 01:47:59;;;;;;;;;;;;;;;15.52;48.00;99920.63;5012346;28;19940;-83
2022/10/29 01:50:24;;;;;;;;;;;;;;;15.50;48.09;99917.28;5016526;28;20358;-82
2022/10/29 01:52:50;;;;;;;;;;;;;;;15.45;48.17;99915.03;5016284;28;19966;-84
2022/10/29 01:55:19;;;;;;;;;;;;;;;15.44;48.26;99909.88;5016343;28;19974;-84
2022/10/29 01:57:45;;;;;;;;;;;;;;;15.45;48.33;99906.25;5016063;28;19917;-84
2022/10/29 02:00:11;;;;;;;;;;;;;;;15.45;48.35;99907.13;5034046;28;19940;-84
2022/10/29 02:02:55;;;;;;;;;;;;;;;15.44;48.36;99901.97;5016309;28;19921;-86
2022/10/29 02:05:52;;;;;;;;;;;;;;;15.43;48.46;99900.28;5030095;28;19964;-86
2022/10/29 02:08:23;;;;;;;;;;;;;;;15.37;48.51;99905.09;4947524;28;20316;-85
2022/10/29 02:10:57;;;;;;;;;;;;;;;15.36;48.51;99900.78;4964138;28;19997;-84
2022/10/29 02:13:25;;;;;;;;;;;;;;;15.33;48.67;99894.91;4961812;28;20388;-84
2022/10/29 02:15:51;;;;;;;;;;;;;;;15.29;48.73;99894.31;4945616;28;20001;-84
2022/10/29 02:18:17;;;;;;;;;;;;;;;15.28;48.75;99897.91;4947503;28;20017;-86
2022/10/29 02:20:42;;;;;;;;;;;;;;;15.26;48.79;99894.56;4945936;28;20311;-85
2022/10/29 02:23:08;;;;;;;;;;;;;;;15.27;48.67;99901.47;4946295;28;19929;-84
2022/10/29 02:25:33;;;;;;;;;;;;;;;15.29;48.73;99899.59;4948758;28;20016;-83
2022/10/29 02:27:58;;;;;;;;;;;;;;;15.28;48.79;99897.06;4951031;28;19919;-82
2022/10/29 02:30:24;;;;;;;;;;;;;;;15.25;49.04;99894.69;4938056;28;20439;-83
2022/10/29 02:32:49;;;;;;;;;;;;;;;15.23;49.19;99896.56;4980633;28;19926;-82
2022/10/29 02:35:14;;;;;;;;;;;;;;;15.23;49.18;99891.31;4964073;28;20378;-82
2022/10/29 02:37:39;;;;;;;;;;;;;;;15.21;49.28;99886.16;4946133;28;19918;-82
2022/10/29 02:40:05;;;;;;;;;;;;;;;15.23;49.39;99892.16;4962515;28;20342;-83
2022/10/29 02:42:30;;;;;;;;;;;;;;;15.21;49.40;99886.16;4947288;28;19918;-82
2022/10/29 02:44:56;;;;;;;;;;;;;;;15.20;49.42;99887.16;5009508;28;19921;-82
2022/10/29 02:47:21;;;;;;;;;;;;;;;15.19;49.36;99886.28;5015816;28;20395;-83
2022/10/29 02:49:46;;;;;;;;;;;;;;;15.18;49.53;99879.38;5033263;28;19964;-83
2022/10/29 02:52:11;;;;;;;;;;;;;;;15.19;49.34;99882.81;5031900;28;20003;-84
2022/10/29 02:54:38;;;;;;;;;;;;;;;15.16;49.38;99878.66;5015272;28;20016;-87
2022/10/29 02:57:03;;;;;;;;;;;;;;;15.19;49.28;99882.81;5015826;28;19924;-83
2022/10/29 02:59:28;;;;;;;;;;;;;;;15.16;49.43;99878.66;5031687;28;19917;-84
2022/10/29 03:01:54;;;;;;;;;;;;;;;15.15;49.33;99882.25;5033478;28;19917;-83
2022/10/29 03:04:19;;;;;;;;;;;;;;;15.15;49.23;99881.41;5015623;28;19924;-79
2022/10/29 03:06:44;;;;;;;;;;;;;;;15.14;49.15;99880.56;5015672;28;20300;-81
2022/10/29 03:09:10;;;;;;;;;;;;;;;15.15;49.33;99876.97;5033066;28;19955;-81
2022/10/29 03:11:35;;;;;;;;;;;;;;;15.13;49.21;99878.91;5027396;28;20380;-81
2022/10/29 03:14:00;;;;;;;;;;;;;;;15.11;49.13;99875.53;5014829;28;19921;-81
2022/10/29 03:16:26;;;;;;;;;;;;;;;15.09;49.17;99879.25;5014507;28;20743;-81
2022/10/29 03:18:51;;;;;;;;;;;;;;;15.07;49.36;99875.88;5014816;28;19917;-81
2022/10/29 03:21:16;;;;;;;;;;;;;;;15.02;49.47;99868.34;5032683;28;19921;-80
2022/10/29 03:23:42;;;;;;;;;;;;;;;15.01;49.35;99872.78;5032731;28;19927;-82
2022/10/29 03:26:07;;;;;;;;;;;;;;;14.99;49.48;99872.06;5031296;28;19921;-84
2022/10/29 03:28:33;;;;;;;;;;;;;;;14.98;49.58;99872.19;5014586;28;19921;-81
2022/10/29 03:30:58;;;;;;;;;;;;;;;14.98;49.44;99873.00;5014896;28;19917;-82
2022/10/29 03:33:25;;;;;;;;;;;;;;;14.97;49.49;99868.69;5014553;28;19923;-82
2022/10/29 03:36:00;;;;;;;;;;;;;;;14.93;49.72;99861.19;5014392;28;19946;-81
2022/10/29 03:38:26;;;;;;;;;;;;;;;14.92;49.65;99865.59;4998225;28;19917;-80
2022/10/29 03:40:51;;;;;;;;;;;;;;;14.90;49.96;99867.50;5014381;28;19932;-81
2022/10/29 03:43:17;;;;;;;;;;;;;;;14.90;49.66;99864.88;5014534;28;19928;-80
2022/10/29 03:45:43;;;;;;;;;;;;;;;14.89;49.75;99857.09;5031694;28;19921;-80
2022/10/29 03:48:08;;;;;;;;;;;;;;;14.86;49.85;99854.72;5014552;28;19982;-82
2022/10/29 03:50:33;;;;;;;;;;;;;;;14.87;49.71;99856.41;5031892;28;19921;-81
2022/10/29 03:52:59;;;;;;;;;;;;;;;14.85;49.71;99851.25;5014685;28;19929;-82
2022/10/29 03:55:24;;;;;;;;;;;;;;;14.82;49.67;99849.69;5014307;28;19991;-80
2022/10/29 03:57:50;;;;;;;;;;;;;;;14.79;49.96;99849.91;5014108;28;19932;-82
2022/10/29 04:00:15;;;;;;;;;;;;;;;14.77;50.11;99846.56;5013986;28;19917;-81
2022/10/29 04:02:41;;;;;;;;;;;;;;;14.76;50.50;99850.16;5014235;28;19917;-82
2022/10/29 04:05:06;;;;;;;;;;;;;;;14.76;50.41;99850.16;5014030;28;19923;-79
2022/10/29 04:07:31;;;;;;;;;;;;;;;14.76;50.54;99849.31;5031491;28;20395;-81
2022/10/29 04:09:57;;;;;;;;;;;;;;;14.77;50.82;99849.19;5013944;28;19921;-82
2022/10/29 04:12:22;;;;;;;;;;;;;;;14.77;50.78;99848.34;5030679;28;19921;-81
2022/10/29 04:14:47;;;;;;;;;;;;;;;14.78;50.96;99853.47;5013627;28;19933;-81
2022/10/29 04:17:13;;;;;;;;;;;;;;;14.82;51.28;99854.94;5031731;28;20299;-83
2022/10/29 04:19:38;;;;;;;;;;;;;;;14.86;51.05;99845.03;5014065;28;19932;-82
2022/10/29 04:22:03;;;;;;;;;;;;;;;14.91;51.20;99848.16;5031527;28;19921;-82
2022/10/29 04:24:29;;;;;;;;;;;;;;;14.93;51.30;99851.50;5013582;28;19917;-81
2022/10/29 04:26:54;;;;;;;;;;;;;;;14.99;51.07;99852.81;5027324;28;20396;-82
2022/10/29 04:29:20;;;;;;;;;;;;;;;15.01;51.10;99854.38;5013808;28;19955;-82
2022/10/29 04:31:45;;;;;;;;;;;;;;;15.06;50.83;99851.38;5014415;28;19917;-82
2022/10/29 04:34:10;;;;;;;;;;;;;;;15.05;50.98;99862.03;5013629;28;20388;-81
2022/10/29 04:36:36;;;;;;;;;;;;;;;15.05;50.96;99852.31;5025984;28;19917;-81
2022/10/29 04:39:01;;;;;;;;;;;;;;;15.00;50.90;99857.94;5013965;28;19924;-81
2022/10/29 04:41:26;;;;;;;;;;;;;;;14.97;50.95;99858.16;5029716;28;20509;-82
2022/10/29 04:43:52;;;;;;;;;;;;;;;14.93;50.74;99855.94;5013239;28;20004;-82
2022/10/29 04:46:17;;;;;;;;;;;;;;;14.91;50.75;99861.31;5013863;28;19921;-81
2022/10/29 04:48:42;;;;;;;;;;;;;;;14.93;50.73;99864.63;5029546;28;19943;-81
2022/10/29 04:51:15;;;;;;;;;;;;;;;14.91;50.83;99853.41;5013668;28;20063;-84
2022/10/29 04:53:40;;;;;;;;;;;;;;;14.91;50.96;99860.44;5009513;28;19952;-81
2022/10/29 04:56:06;;;;;;;;;;;;;;;14.90;50.97;99861.41;5017159;28;19960;-80
2022/10/29 04:58:31;;;;;;;;;;;;;;;14.94;50.80;99868.09;5017895;28;20004;-82
2022/10/29 05:01:00;;;;;;;;;;;;;;;14.99;50.65;99865.94;5017434;28;19928;-80
2022/10/29 05:03:26;;;;;;;;;;;;;;;15.00;50.60;99859.75;5017395;28;19917;-80
2022/10/29 05:05:51;;;;;;;;;;;;;;;15.02;50.41;99866.56;5016717;28;19983;-81
2022/10/29 05:08:16;;;;;;;;;;;;;;;15.07;50.47;99862.72;5017875;28;19921;-80
2022/10/29 05:10:42;;;;;;;;;;;;;;;15.14;49.96;99859.50;5017287;28;19971;-80
2022/10/29 05:13:09;;;;;;;;;;;;;;;15.36;49.60;99861.31;5018991;28;19975;-80
2022/10/29 05:15:35;;;;;;;;;;;;;;;15.70;48.84;99865.69;5025370;28;20414;-81
2022/10/29 05:18:00;;;;;;;;;;;;;;;16.12;47.95;99859.78;5019453;28;19917;-80
2022/10/29 05:20:25;;;;;;;;;;;;;;;16.42;47.25;99865.13;5034762;28;19917;-80
2022/10/29 05:22:59;;;;;;;;;;;;;;;16.71;46.38;99853.97;5016878;28;19917;-81
2022/10/29 05:25:25;;;;;;;;;;;;;;;17.05;45.65;99866.16;5013857;28;19925;-81
2022/10/29 05:27:57;;;;;;;;;;;;;;;17.35;45.29;99862.66;5016681;28;19971;-82
2022/10/29 05:30:23;;;;;;;;;;;;;;;17.75;44.28;99866.25;5010552;28;19925;-81
2022/10/29 05:32:48;;;;;;;;;;;;;;;18.05;43.70;99871.47;5016849;28;19921;-83
2022/10/29 05:35:13;;;;;;;;;;;;;;;18.35;43.05;99871.50;5016734;28;19917;-82
2022/10/29 05:37:39;;;;;;;;;;;;;;;18.64;42.62;99871.44;5033304;28;19940;-81
2022/10/29 05:40:04;;;;;;;;;;;;;;;18.91;41.91;99869.91;5017083;28;19925;-82
2022/10/29 05:42:30;;;;;;;;;;;;;;;19.23;41.45;99872.19;5016792;28;20277;-81
2022/10/29 05:44:55;;;;;;;;;;;;;;;19.52;41.11;99866.75;5032146;28;19917;-81
2022/10/29 05:47:22;;;;;;;;;;;;;;;19.93;40.55;99869.06;5017062;28;19917;-80
2022/10/29 05:49:48;;;;;;;;;;;;;;;20.46;39.71;99869.19;5016933;28;20015;-79
2022/10/29 05:52:13;;;;;;;;;;;;;;;21.05;39.19;99872.97;5011426;28;19980;-80
2022/10/29 05:54:39;;;;;;;;;;;;;;;21.53;38.54;99877.88;5016358;28;19952;-80
2022/10/29 05:57:05;;;;;;;;;;;;;;;22.02;38.06;99875.34;5016496;28;20379;-80
2022/10/29 05:59:30;;;;;;;;;;;;;;;22.44;37.59;99876.25;5016691;28;20455;-75
2022/10/29 06:01:55;;;;;;;;;;;;;;;23.12;37.73;99886.53;5016405;28;20391;-72
2022/10/29 06:04:21;;;;;;;;;;;;;;;23.66;36.88;99887.66;5016691;28;19918;-74
2022/10/29 06:06:50;;;;;;;;;;;;;;;24.18;38.39;99888.91;5018299;28;19924;-81
2022/10/29 06:09:20;;;;;;;;;;;;;;;24.57;37.23;99882.59;5044677;28;20395;-85
2022/10/29 06:11:46;;;;;;;;;;;;;;;25.18;35.38;99879.84;5041090;28;19917;-84
2022/10/29 06:14:12;;;;;;;;;;;;;;;25.71;33.51;99878.88;5023418;28;19979;-84
2022/10/29 06:16:39;;;;;;;;;;;;;;;26.20;32.43;99888.06;5044780;28;19924;-83
2022/10/29 06:19:05;;;;;;;;;;;;;;;26.69;31.55;99888.16;5021965;28;19917;-80
2022/10/29 06:21:30;;;;;;;;;;;;;;;27.39;29.54;99890.03;5035713;28;19924;-81
2022/10/29 06:23:56;;;;;;;;;;;;;;;28.25;27.79;99886.81;5018348;28;19940;-75
2022/10/29 06:26:21;;;;;;;;;;;;;;;29.10;26.91;99883.50;5034720;28;19940;-77
2022/10/29 06:28:46;;;;;;;;;;;;;;;29.88;25.00;99885.31;5016087;28;19917;-75
2022/10/29 06:31:12;;;;;;;;;;;;;;;30.68;23.35;99892.03;5014345;28;19929;-81
2022/10/29 06:33:37;;;;;;;;;;;;;;;31.27;21.90;99884.41;5016581;28;19918;-81
2022/10/29 06:36:03;;;;;;;;;;;;;;;31.79;21.96;99896.66;5015703;28;19929;-79
2022/10/29 06:38:29;;;;;;;;;;;;;;;32.59;20.09;99899.00;5015638;28;19921;-82
2022/10/29 06:40:54;;;;;;;;;;;;;;;33.05;18.88;99893.03;5015755;28;19924;-80
2022/10/29 06:43:20;;;;;;;;;;;;;;;33.40;18.83;99889.44;5016690;28;19923;-79
2022/10/29 06:45:45;;;;;;;;;;;;;;;33.36;18.81;99889.94;5015745;28;19918;-81
2022/10/29 06:48:11;;;;;;;;;;;;;;;33.50;18.89;99889.66;5015253;28;20370;-78
2022/10/29 06:50:36;;;;;;;;;;;;;;;33.12;18.95;99894.53;5015255;28;19917;-80
2022/10/29 06:53:04;;;;;;;;;;;;;;;32.58;19.08;99891.94;5031134;28;19924;-76
2022/10/29 06:55:29;;;;;;;;;;;;;;;31.67;20.84;99888.50;5014166;28;20370;-76
2022/10/29 06:57:55;;;;;;;;;;;;;;;31.19;21.97;99887.41;4996864;28;19917;-71
2022/10/29 07:00:21;;;;;;;;;;;;;;;30.96;22.91;99898.81;5015102;28;19924;-75
2022/10/29 07:02:46;;;;;;;;;;;;;;;30.05;22.69;99901.78;5031471;28;19917;-74
2022/10/29 07:05:11;;;;;;;;;;;;;;;29.50;22.88;99896.84;5032591;28;19925;-75
2022/10/29 07:07:37;;;;;;;;;;;;;;;29.27;23.36;99901.88;5032444;28;20391;-76
2022/10/29 07:10:02;;;;;;;;;;;;;;;28.79;23.89;99902.97;5014971;28;20385;-74
2022/10/29 07:12:27;;;;;;;;;;;;;;;28.74;24.45;99902.78;5014835;28;19921;-76
2022/10/29 07:14:53;;;;;;;;;;;;;;;28.24;24.28;99901.25;5014420;28;19927;-76
2022/10/29 07:17:18;;;;;;;;;;;;;;;28.10;25.25;99907.63;5014699;28;19987;-78
2022/10/29 07:19:43;;;;;;;;;;;;;;;28.07;25.46;99911.56;5014808;28;20407;-73
2022/10/29 07:22:08;;;;;;;;;;;;;;;28.14;26.30;99911.59;5032352;28;19921;-74
2022/10/29 07:24:34;;;;;;;;;;;;;;;28.02;25.42;99913.19;5014683;28;20393;-75
2022/10/29 07:27:00;;;;;;;;;;;;;;;28.09;25.78;99914.06;5014703;28;19921;-73
2022/10/29 07:29:26;;;;;;;;;;;;;;;28.44;25.56;99909.34;5030990;28;20019;-70
2022/10/29 07:31:51;;;;;;;;;;;;;;;28.33;24.64;99910.78;5010473;28;20394;-75
2022/10/29 07:34:16;;;;;;;;;;;;;;;28.08;24.89;99915.91;5032605;28;19975;-77
2022/10/29 07:36:42;;;;;;;;;;;;;;;27.77;25.88;99908.38;5032983;28;20359;-75
2022/10/29 07:39:07;;;;;;;;;;;;;;;27.25;26.39;99908.69;5031240;28;19932;-78
2022/10/29 07:41:32;;;;;;;;;;;;;;;26.79;27.13;99913.75;5029855;28;20388;-77
2022/10/29 07:43:58;;;;;;;;;;;;;;;26.68;27.20;99918.63;5027404;28;20339;-76
2022/10/29 07:46:23;;;;;;;;;;;;;;;26.89;27.17;99908.88;5011725;28;20295;-73
2022/10/29 07:48:48;;;;;;;;;;;;;;;26.70;27.39;99910.38;5011872;28;19994;-75
2022/10/29 07:51:14;;;;;;;;;;;;;;;26.61;27.66;99908.84;5027484;28;19917;-75
2022/10/29 07:53:39;;;;;;;;;;;;;;;26.60;28.03;99913.38;5009921;28;20439;-76
2022/10/29 07:56:04;;;;;;;;;;;;;;;26.27;28.80;99916.56;5009461;28;19917;-75
2022/10/29 07:58:29;;;;;;;;;;;;;;;26.42;28.59;99908.47;5012112;28;19956;-75
2022/10/29 08:00:55;;;;;;;;;;;;;;;26.18;28.63;99909.69;5011506;28;19918;-74
2022/10/29 08:03:20;;;;;;;;;;;;;;;26.00;29.13;99905.59;5011436;28;19924;-74
2022/10/29 08:05:48;;;;;;;;;;;;;;;26.11;28.88;99912.28;5027596;28;19924;-75
2022/10/29 08:08:13;;;;;;;;;;;;;;;25.74;29.50;99914.09;5030806;28;19925;-76
2022/10/29 08:10:38;;;;;;;;;;;;;;;26.19;29.71;99906.00;5013773;28;19917;-75
2022/10/29 08:13:04;;;;;;;;;;;;;;;26.20;29.32;99909.50;5030788;28;19917;-76
2022/10/29 08:15:30;;;;;;;;;;;;;;;26.43;29.11;99914.66;5013208;28;19925;-76
2022/10/29 08:17:55;;;;;;;;;;;;;;;26.59;28.41;99903.66;5012125;28;19917;-76
2022/10/29 08:20:21;;;;;;;;;;;;;;;26.70;28.55;99902.34;5013286;28;19924;-76
2022/10/29 08:22:46;;;;;;;;;;;;;;;26.89;28.29;99904.34;5012992;28;19944;-76
2022/10/29 08:25:12;;;;;;;;;;;;;;;27.00;28.33;99904.84;5013124;28;20388;-76
2022/10/29 08:27:37;;;;;;;;;;;;;;;27.17;28.36;99910.72;5013145;28;19921;-76
2022/10/29 08:30:03;;;;;;;;;;;;;;;27.18;27.70;99902.47;5012412;28;19964;-76
2022/10/29 08:32:29;;;;;;;;;;;;;;;26.79;28.08;99895.84;5011292;28;19924;-74
2022/10/29 08:34:55;;;;;;;;;;;;;;;26.59;28.55;99898.31;5030739;28;19918;-76
2022/10/29 08:37:20;;;;;;;;;;;;;;;27.01;28.27;99890.41;5029542;28;19960;-76
2022/10/29 08:39:45;;;;;;;;;;;;;;;26.70;28.30;99897.00;5012892;28;19963;-76
2022/10/29 08:42:18;;;;;;;;;;;;;;;26.89;28.36;99890.94;5030872;28;19917;-75
2022/10/29 08:45:02;;;;;;;;;;;;;;;27.34;27.55;99885.28;5008948;28;19932;-76
2022/10/29 08:47:27;;;;;;;;;;;;;;;27.16;27.66;99888.44;5027830;28;20346;-76
2022/10/29 08:49:53;;;;;;;;;;;;;;;26.99;28.41;99884.41;5010764;28;19936;-73
2022/10/29 08:52:23;;;;;;;;;;;;;;;27.14;28.49;99885.13;5022513;28;19984;-76
2022/10/29 08:54:50;;;;;;;;;;;;;;;27.56;27.75;99887.84;5013668;28;19924;-77
2022/10/29 08:57:16;;;;;;;;;;;;;;;28.13;26.55;99877.72;5013596;28;19918;-80
2022/10/29 08:59:48;;;;;;;;;;;;;;;28.82;26.36;99871.13;5025041;28;19917;-80
2022/10/29 09:02:16;;;;;;;;;;;;;;;29.77;24.88;99878.72;5012959;28;19925;-78
2022/10/29 09:04:42;;;;;;;;;;;;;;;31.16;22.58;99869.78;5013856;28;19917;-77
2022/10/29 09:07:18;;;;;;;;;;;;;;;32.03;21.39;99868.69;5012717;28;20407;-76
2022/10/29 09:09:50;;;;;;;;;;;;;;;32.41;21.03;99867.50;5012228;28;19918;-76
2022/10/29 09:12:24;;;;;;;;;;;;;;;31.87;21.46;99864.75;5030842;28;19956;-74
2022/10/29 09:14:56;;;;;;;;;;;;;;;31.38;22.40;99855.84;5030760;28;19922;-77
2022/10/29 09:17:21;;;;;;;;;;;;;;;30.76;22.69;99854.00;5012028;28;20400;-77
2022/10/29 09:19:46;;;;;;;;;;;;;;;30.51;23.28;99861.31;5013472;28;19967;-76
2022/10/29 09:22:15;;;;;;;;;;;;;;;30.13;23.83;99850.34;5031051;28;19956;-76
2022/10/29 09:24:59;;;;;;;;;;;;;;;29.85;23.64;99848.06;5025126;28;19999;-76
2022/10/29 09:27:43;;;;;;;;;;;;;;;29.68;24.32;99853.13;5026869;28;19917;-78
2022/10/29 09:30:18;;;;;;;;;;;;;;;30.02;23.52;99837.59;5027095;28;20298;-76
2022/10/29 09:32:47;;;;;;;;;;;;;;;29.86;24.37;99836.25;5008209;28;19984;-76
2022/10/29 09:35:13;;;;;;;;;;;;;;;29.74;24.18;99828.00;5011673;28;19921;-74
2022/10/29 09:37:52;;;;;;;;;;;;;;;29.55;24.28;99824.38;5007213;28;19932;-77
2022/10/29 09:40:41;;;;;;;;;;;;;;;29.34;24.48;99822.84;5015566;28;20434;-76
2022/10/29 09:43:26;;;;;;;;;;;;;;;29.27;24.71;99821.22;5014168;28;19916;-78
2022/10/29 09:45:55;;;;;;;;;;;;;;;29.00;24.83;99822.13;5032262;28;19963;-77
2022/10/29 09:48:24;;;;;;;;;;;;;;;28.89;25.33;99817.38;5029668;28;19971;-76
2022/10/29 09:50:56;;;;;;;;;;;;;;;29.00;25.08;99811.38;5016853;28;19917;-75
2022/10/29 09:53:22;;;;;;;;;;;;;;;29.25;24.81;99810.69;5012609;28;19920;-76
2022/10/29 09:55:52;;;;;;;;;;;;;;;29.62;24.47;99800.16;5034837;28;19924;-78
2022/10/29 09:58:24;;;;;;;;;;;;;;;29.86;24.04;99805.84;5034409;28;19917;-76
2022/10/29 10:00:50;;;;;;;;;;;;;;;29.55;24.26;99796.69;5032617;28;19918;-77
2022/10/29 10:03:18;;;;;;;;;;;;;;;29.17;24.69;99794.75;5016292;28;19928;-82
2022/10/29 10:05:56;;;;;;;;;;;;;;;28.75;25.27;99792.44;5016456;28;19932;-77
2022/10/29 10:08:21;;;;;;;;;;;;;;;29.13;25.12;99786.31;5011543;28;19956;-75
2022/10/29 10:10:51;;;;;;;;;;;;;;;29.21;24.93;99787.97;5032952;28;19960;-76
2022/10/29 10:16:36;;;;;;;;;;;;;;;28.52;25.88;99774.03;4886171;29;20076;-75
2022/10/29 10:19:01;;;;;;;;;;;;;;;27.90;26.73;99771.56;4886623;29;20446;-75
2022/10/29 10:21:27;;;;;;;;;;;;;;;27.91;26.69;99759.81;4887571;29;19919;-76
2022/10/29 10:23:54;;;;;;;;;;;;;;;27.92;26.69;99764.13;4888418;29;19924;-75
2022/10/29 10:26:25;;;;;;;;;;;;;;;27.98;26.95;99757.97;4883654;29;19919;-79
2022/10/29 10:29:13;;;;;;;;;;;;;;;28.28;26.10;99754.84;4886333;29;19920;-76
2022/10/29 10:31:41;;;;;;;;;;;;;;;28.31;26.09;99749.06;4868262;29;19920;-78
2022/10/29 10:34:08;;;;;;;;;;;;;;;28.30;25.83;99749.28;4853430;29;19927;-76
2022/10/29 10:36:33;;;;;;;;;;;;;;;28.25;25.84;99746.41;4866685;29;19951;-77
2022/10/29 10:38:59;;;;;;;;;;;;;;;28.15;25.98;99741.47;4853937;29;20387;-78
2022/10/29 10:41:25;;;;;;;;;;;;;;;27.71;26.26;99735.63;4850914;29;19921;-76
2022/10/29 10:43:50;;;;;;;;;;;;;;;27.21;26.92;99741.25;4852174;29;19980;-76
2022/10/29 10:46:21;;;;;;;;;;;;;;;27.00;27.11;99734.19;4853654;29;20315;-77
2022/10/29 10:49:05;;;;;;;;;;;;;;;27.20;27.01;99731.59;4852946;29;20416;-78
2022/10/29 10:51:31;;;;;;;;;;;;;;;27.31;27.49;99732.03;4902043;29;19930;-77
2022/10/29 10:53:57;;;;;;;;;;;;;;;27.41;26.96;99733.31;4909676;29;19919;-78
2022/10/29 10:56:22;;;;;;;;;;;;;;;27.39;26.75;99721.13;4907784;29;19958;-75
2022/10/29 10:58:50;;;;;;;;;;;;;;;27.13;27.10;99727.22;4908620;29;20014;-77
2022/10/29 11:01:24;;;;;;;;;;;;;;;27.04;26.86;99719.38;4924892;29;19926;-76
2022/10/29 11:04:09;;;;;;;;;;;;;;;26.94;27.65;99712.72;4908621;29;20011;-78
2022/10/29 11:06:35;;;;;;;;;;;;;;;26.79;27.45;99723.56;4924023;29;19927;-81
2022/10/29 11:09:04;;;;;;;;;;;;;;;26.82;28.04;99715.97;4938791;28;20399;-77
2022/10/29 11:11:31;;;;;;;;;;;;;;;26.56;27.61;99711.28;4971606;28;19925;-77
2022/10/29 11:14:04;;;;;;;;;;;;;;;26.33;27.60;99706.22;4971670;28;19957;-76
2022/10/29 11:16:36;;;;;;;;;;;;;;;26.13;28.44;99701.53;4971817;28;19973;-75
2022/10/29 11:19:20;;;;;;;;;;;;;;;26.27;28.03;99693.63;4971821;28;19976;-78
2022/10/29 11:21:54;;;;;;;;;;;;;;;26.16;27.79;99693.13;4969677;28;19955;-74
2022/10/29 11:24:21;;;;;;;;;;;;;;;26.11;27.47;99684.88;4971829;28;19922;-77
2022/10/29 11:26:54;;;;;;;;;;;;;;;25.78;28.38;99682.72;4971922;28;19918;-75
2022/10/29 11:29:39;;;;;;;;;;;;;;;25.87;28.32;99683.44;4972129;28;20396;-77
2022/10/29 11:32:18;;;;;;;;;;;;;;;25.84;28.63;99673.13;4971706;28;19961;-77
2022/10/29 11:34:55;;;;;;;;;;;;;;;25.91;28.26;99671.31;4969466;28;19918;-76
2022/10/29 11:37:32;;;;;;;;;;;;;;;25.46;28.02;99668.88;4971930;28;19926;-75
2022/10/29 11:40:02;;;;;;;;;;;;;;;25.23;28.02;99669.03;4971460;28;20383;-76
2022/10/29 11:42:28;;;;;;;;;;;;;;;25.17;28.33;99660.94;4971428;28;19973;-74
2022/10/29 11:44:53;;;;;;;;;;;;;;;25.13;28.06;99659.66;4971175;28;19926;-77
2022/10/29 11:47:24;;;;;;;;;;;;;;;25.18;27.86;99652.75;4971437;28;20377;-79
2022/10/29 11:50:10;;;;;;;;;;;;;;;25.02;28.45;99656.47;4972063;28;20020;-77
2022/10/29 11:52:54;;;;;;;;;;;;;;;25.05;28.41;99655.28;4970734;28;20452;-76
2022/10/29 11:55:27;;;;;;;;;;;;;;;24.95;28.80;99649.41;4970928;28;19918;-76
2022/10/29 11:58:06;;;;;;;;;;;;;;;24.88;28.37;99644.81;4970898;28;19922;-75
2022/10/29 12:00:43;;;;;;;;;;;;;;;24.86;28.68;99635.31;4970063;28;19922;-76
2022/10/29 12:03:11;;;;;;;;;;;;;;;24.82;28.53;99634.06;4971323;28;20397;-77
2022/10/29 12:05:55;;;;;;;;;;;;;;;24.74;28.95;99630.47;4970848;28;20381;-78
2022/10/29 12:08:35;;;;;;;;;;;;;;;24.63;29.06;99638.16;4969031;28;19924;-77
2022/10/29 12:11:19;;;;;;;;;;;;;;;24.51;28.90;99625.25;4968742;28;19962;-76
2022/10/29 12:13:48;;;;;;;;;;;;;;;24.50;28.81;99630.78;4970819;28;19925;-76
2022/10/29 12:16:18;;;;;;;;;;;;;;;24.25;28.94;99617.72;4970588;28;20033;-77
2022/10/29 12:18:46;;;;;;;;;;;;;;;24.30;29.02;99614.50;4968827;28;20026;-77
2022/10/29 12:21:17;;;;;;;;;;;;;;;24.32;28.83;99621.31;4971152;28;20017;-76
2022/10/29 12:24:11;;;;;;;;;;;;;;;24.18;28.43;99614.16;4970984;28;19926;-76
2022/10/29 12:26:39;;;;;;;;;;;;;;;24.10;28.75;99614.22;4951235;29;19922;-76
2022/10/29 12:29:23;;;;;;;;;;;;;;;24.09;28.80;99612.56;4951505;28;19969;-78
2022/10/29 12:32:15;;;;;;;;;;;;;;;24.08;29.07;99608.25;4949913;29;19918;-77
2022/10/29 12:34:44;;;;;;;;;;;;;;;24.05;29.13;99604.09;4944940;28;19922;-76
2022/10/29 12:37:27;;;;;;;;;;;;;;;24.02;29.00;99602.63;4951411;29;19926;-77
2022/10/29 12:39:54;;;;;;;;;;;;;;;23.96;29.23;99597.22;4950369;29;20605;-77
2022/10/29 12:42:25;;;;;;;;;;;;;;;23.95;29.29;99604.38;4951667;28;20005;-77
2022/10/29 12:44:59;;;;;;;;;;;;;;;23.88;29.03;99595.47;4951318;29;19965;-76
2022/10/29 12:47:43;;;;;;;;;;;;;;;23.76;29.20;99592.38;4933487;28;19919;-76
2022/10/29 12:50:44;;;;;;;;;;;;;;;23.75;29.05;99592.53;4953183;28;20049;-76
2022/10/29 12:53:12;;;;;;;;;;;;;;;23.71;29.14;99591.28;4905083;29;19919;-76
2022/10/29 12:55:37;;;;;;;;;;;;;;;23.66;28.91;99592.63;4902581;29;20007;-75
2022/10/29 12:58:21;;;;;;;;;;;;;;;23.53;28.80;99587.09;4873473;29;19923;-75